Time;durP1;ratioP1;P1;durP2;ratioP2;P2;SDS_P1;SDS_P2;PMS_P1;PMS_P2;Temp;Humidity;BMP_temperature;BMP_pressure;BME280_temperature;BME280_humidity;BME280_pressure;Samples;Min_cycle;Max_cycle;Signal;HPM_P1;HPM_P2
2023/05/20 00:01:27;;;;;;;22.02;14.60;;;15.60;99.90;;;;;;5074026;28;20075;-45
2023/05/20 00:03:52;;;;;;;16.80;13.55;;;15.60;99.90;;;;;;5054513;28;20041;-47
2023/05/20 00:06:18;;;;;;;17.55;13.38;;;15.60;99.90;;;;;;5038303;28;20045;-46
2023/05/20 00:08:44;;;;;;;19.50;13.20;;;15.40;99.90;;;;;;5070590;28;20041;-47
2023/05/20 00:11:10;;;;;;;21.85;13.80;;;15.40;99.90;;;;;;5074688;28;20040;-47
2023/05/20 00:13:37;;;;;;;19.73;13.73;;;15.10;99.90;;;;;;5074026;28;20060;-46
2023/05/20 00:16:04;;;;;;;19.67;13.25;;;15.00;99.90;;;;;;5073807;28;20029;-47
2023/05/20 00:18:31;;;;;;;16.25;11.60;;;;;;;;;;5073848;28;20368;-46
2023/05/20 00:20:57;;;;;;;17.38;12.77;;;14.50;99.90;;;;;;5073566;28;20036;-49
2023/05/20 00:23:23;;;;;;;18.15;12.45;;;14.30;99.90;;;;;;5073519;28;20043;-49
2023/05/20 00:25:49;;;;;;;17.33;12.95;;;14.20;99.90;;;;;;5071969;28;20032;-48
2023/05/20 00:28:15;;;;;;;20.83;13.05;;;14.00;99.90;;;;;;5070988;28;20067;-49
2023/05/20 00:30:41;;;;;;;20.40;12.65;;;14.10;99.90;;;;;;5070460;28;20032;-48
2023/05/20 00:33:07;;;;;;;17.38;13.23;;;14.40;99.90;;;;;;5073931;28;20043;-48
2023/05/20 00:35:32;;;;;;;16.15;12.50;;;14.60;99.90;;;;;;5068026;28;20448;-49
2023/05/20 00:37:58;;;;;;;17.23;12.65;;;14.60;99.90;;;;;;5072823;28;20380;-49
2023/05/20 00:40:24;;;;;;;16.60;12.52;;;14.80;99.90;;;;;;5074107;28;20039;-49
2023/05/20 00:42:50;;;;;;;15.68;11.25;;;14.80;99.90;;;;;;5071083;28;20036;-48
2023/05/20 00:45:16;;;;;;;18.48;13.15;;;14.80;99.90;;;;;;5066651;28;20089;-48
2023/05/20 00:47:42;;;;;;;18.48;12.77;;;14.90;99.90;;;;;;5073408;28;20062;-48
2023/05/20 00:50:09;;;;;;;16.17;12.52;;;14.50;99.90;;;;;;5021530;28;20072;-48
2023/05/20 00:52:38;;;;;;;18.25;14.18;;;14.30;99.90;;;;;;5069670;28;20053;-48
2023/05/20 00:55:04;;;;;;;19.58;13.57;;;14.50;99.90;;;;;;5073175;28;20059;-49
2023/05/20 00:57:30;;;;;;;21.58;14.18;;;14.50;99.90;;;;;;5069809;28;20399;-49
2023/05/20 00:59:56;;;;;;;20.73;14.48;;;14.20;99.90;;;;;;5073312;28;20059;-48
2023/05/20 01:02:22;;;;;;;21.90;13.68;;;14.10;99.90;;;;;;5071053;28;20162;-48
2023/05/20 01:04:48;;;;;;;21.85;13.82;;;14.20;99.90;;;;;;5072595;28;20038;-49
2023/05/20 01:07:16;;;;;;;22.85;13.88;;;14.20;99.90;;;;;;5072597;28;20028;-48
2023/05/20 01:09:43;;;;;;;18.83;13.40;;;14.10;99.90;;;;;;5087298;28;20041;-49
2023/05/20 01:12:34;;;;;;;26.98;14.77;;;14.20;99.90;;;;;;5072891;28;20036;-48
2023/05/20 01:15:07;;;;;;;18.63;13.60;;;14.40;99.90;;;;;;5065381;28;20100;-49
2023/05/20 01:17:45;;;;;;;19.10;13.43;;;14.50;99.90;;;;;;5038121;28;20441;-49
2023/05/20 01:20:13;;;;;;;18.90;13.13;;;14.50;99.90;;;;;;5072133;28;20096;-49
2023/05/20 01:22:51;;;;;;;18.45;13.45;;;14.70;99.90;;;;;;5072859;28;20028;-48
2023/05/20 01:25:17;;;;;;;20.30;13.27;;;14.80;99.90;;;;;;5084233;28;20033;-48
2023/05/20 01:27:43;;;;;;;18.00;12.40;;;14.70;99.90;;;;;;5071478;28;20032;-50
2023/05/20 01:30:10;;;;;;;18.77;12.15;;;14.30;99.90;;;;;;5073195;28;20475;-48
2023/05/20 01:32:44;;;;;;;19.25;11.13;;;14.00;99.90;;;;;;5072774;28;20125;-49
2023/05/20 01:35:10;;;;;;;16.98;11.23;;;14.10;99.90;;;;;;5037558;28;20045;-49
2023/05/20 01:37:39;;;;;;;14.65;11.50;;;14.10;99.90;;;;;;5072549;28;20040;-49
2023/05/20 01:40:07;;;;;;;16.25;10.82;;;14.30;99.90;;;;;;5072755;28;20032;-48
2023/05/20 01:42:34;;;;;;;16.35;10.63;;;14.20;99.90;;;;;;5051120;28;20051;-46
2023/05/20 01:45:00;;;;;;;20.45;12.48;;;14.10;99.90;;;;;;5069801;28;20033;-46
2023/05/20 01:47:26;;;;;;;22.15;13.65;;;14.10;99.90;;;;;;5072107;28;20043;-47
2023/05/20 01:49:53;;;;;;;21.00;13.30;;;14.20;99.90;;;;;;5072302;28;20042;-47
2023/05/20 01:52:20;;;;;;;21.13;13.52;;;14.30;99.90;;;;;;5071878;28;20102;-47
2023/05/20 01:54:49;;;;;;;21.13;13.10;;;14.50;99.90;;;;;;5069427;28;20028;-47
2023/05/20 01:57:18;;;;;;;25.73;13.95;;;14.50;99.90;;;;;;5071705;28;20029;-46
2023/05/20 01:59:43;;;;;;;19.27;14.00;;;14.60;99.90;;;;;;5072020;28;20080;-49
2023/05/20 02:02:09;;;;;;;22.48;13.05;;;14.60;99.90;;;;;;5070332;28;20060;-46
2023/05/20 02:04:35;;;;;;;19.55;12.65;;;14.60;99.90;;;;;;5071982;28;20529;-46
2023/05/20 02:07:00;;;;;;;24.58;13.65;;;14.40;99.90;;;;;;5038096;28;20028;-49
2023/05/20 02:09:26;;;;;;;20.38;13.13;;;14.50;99.90;;;;;;5071895;28;20028;-49
2023/05/20 02:11:52;;;;;;;19.95;12.63;;;14.40;99.90;;;;;;5071754;28;20045;-46
2023/05/20 02:14:18;;;;;;;15.15;12.10;;;14.40;99.90;;;;;;5084180;28;20047;-50
2023/05/20 02:16:46;;;;;;;20.67;12.45;;;14.50;99.90;;;;;;5062271;28;20064;-48
2023/05/20 02:19:11;;;;;;;20.88;12.38;;;14.70;99.90;;;;;;5064658;28;20112;-49
2023/05/20 02:21:41;;;;;;;28.58;14.13;;;14.70;99.90;;;;;;5068099;28;20124;-47
2023/05/20 02:24:07;;;;;;;20.85;11.57;;;14.80;99.90;;;;;;5071435;28;20021;-48
2023/05/20 02:26:33;;;;;;;16.15;10.73;;;14.80;99.90;;;;;;5070866;28;20036;-49
2023/05/20 02:28:59;;;;;;;24.35;12.35;;;14.80;99.90;;;;;;5071671;28;20050;-49
2023/05/20 02:31:26;;;;;;;13.73;9.48;;;14.70;99.90;;;;;;5071653;28;21269;-47
2023/05/20 02:33:51;;;;;;;11.13;8.55;;;14.70;99.90;;;;;;5072256;28;20026;-46
2023/05/20 02:36:17;;;;;;;22.98;10.38;;;14.20;99.90;;;;;;5071500;28;20039;-46
2023/05/20 02:38:43;;;;;;;15.18;10.75;;;14.20;99.90;;;;;;5066845;28;20396;-46
2023/05/20 02:41:09;;;;;;;15.30;10.68;;;14.30;99.90;;;;;;5073215;28;20040;-49
2023/05/20 02:43:35;;;;;;;15.32;10.85;;;14.50;99.90;;;;;;5076398;28;20479;-50
2023/05/20 02:46:01;;;;;;;14.48;9.70;;;14.60;99.90;;;;;;5075573;28;20105;-49
2023/05/20 02:48:27;;;;;;;11.98;8.10;;;14.60;99.90;;;;;;5075337;28;20434;-46
2023/05/20 02:50:53;;;;;;;12.85;9.25;;;14.00;99.90;;;;;;5090434;28;20055;-45
2023/05/20 02:53:19;;;;;;;13.07;9.25;;;;;;;;;;5041043;28;20040;-46
2023/05/20 02:55:49;;;;;;;10.90;8.68;;;13.40;99.90;;;;;;5075579;28;20437;-46
2023/05/20 02:58:16;;;;;;;13.57;9.35;;;13.10;99.90;;;;;;5075383;28;20499;-46
2023/05/20 03:00:42;;;;;;;13.45;9.95;;;13.50;99.90;;;;;;5072361;28;20115;-47
2023/05/20 03:03:09;;;;;;;18.13;9.63;;;13.80;99.90;;;;;;5075870;28;20033;-48
2023/05/20 03:05:36;;;;;;;14.20;8.40;;;13.70;99.90;;;;;;5074618;28;20027;-49
2023/05/20 03:08:09;;;;;;;13.82;8.98;;;13.50;99.90;;;;;;5074967;28;20088;-49
2023/05/20 03:10:38;;;;;;;15.63;8.23;;;13.40;99.90;;;;;;5074450;28;20082;-49
2023/05/20 03:13:10;;;;;;;11.63;8.70;;;13.10;99.90;;;;;;5074670;28;20086;-50
2023/05/20 03:15:37;;;;;;;11.57;8.68;;;13.20;99.90;;;;;;5074834;28;20037;-48
2023/05/20 03:18:07;;;;;;;10.95;8.10;;;13.00;99.90;;;;;;5074836;28;20036;-49
2023/05/20 03:20:37;;;;;;;10.60;7.78;;;12.90;99.90;;;;;;5073894;28;20032;-48
2023/05/20 03:23:06;;;;;;;12.70;9.27;;;13.20;99.90;;;;;;5074533;28;20491;-50
2023/05/20 03:25:32;;;;;;;11.85;8.30;;;13.50;99.90;;;;;;5074813;28;20020;-49
2023/05/20 03:27:58;;;;;;;13.63;7.57;;;13.80;99.90;;;;;;5074006;28;20112;-48
2023/05/20 03:30:25;;;;;;;13.77;7.53;;;14.00;99.90;;;;;;5075009;28;20028;-49
2023/05/20 03:32:56;;;;;;;9.75;7.85;;;14.10;99.90;;;;;;5074407;28;20456;-49
2023/05/20 03:35:22;;;;;;;9.70;7.38;;;14.20;99.90;;;;;;5075469;28;20056;-50
2023/05/20 03:37:50;;;;;;;13.60;7.88;;;14.30;99.90;;;;;;5074404;28;20090;-49
2023/05/20 03:40:16;;;;;;;10.73;7.88;;;14.30;99.90;;;;;;5070958;28;20048;-49
2023/05/20 03:42:41;;;;;;;11.77;8.10;;;14.00;99.90;;;;;;5073710;28;20021;-49
2023/05/20 03:45:08;;;;;;;12.30;7.78;;;14.10;99.90;;;;;;5074212;28;20032;-47
2023/05/20 03:47:34;;;;;;;11.02;7.95;;;14.20;99.90;;;;;;5089296;28;20033;-49
2023/05/20 03:49:59;;;;;;;10.90;7.80;;;14.10;99.90;;;;;;5075201;28;20031;-48
2023/05/20 03:52:25;;;;;;;9.60;7.47;;;13.90;99.90;;;;;;5085249;28;20045;-49
2023/05/20 03:54:53;;;;;;;9.73;7.75;;;13.70;99.90;;;;;;5070529;28;20151;-49
2023/05/20 03:57:18;;;;;;;10.50;7.72;;;13.80;99.90;;;;;;5069436;28;20044;-49
2023/05/20 03:59:44;;;;;;;10.00;7.97;;;14.00;99.90;;;;;;5073846;28;20049;-49
2023/05/20 04:02:10;;;;;;;17.27;7.70;;;14.10;99.90;;;;;;5066181;28;20020;-49
2023/05/20 04:04:36;;;;;;;10.00;7.55;;;14.30;99.90;;;;;;5074649;28;20032;-49
2023/05/20 04:07:03;;;;;;;12.32;8.27;;;13.90;99.90;;;;;;5069174;28;20044;-50
2023/05/20 04:09:29;;;;;;;12.98;9.50;;;14.00;99.90;;;;;;5036369;28;20400;-49
2023/05/20 04:11:55;;;;;;;12.68;9.48;;;14.20;99.90;;;;;;5070870;28;20036;-49
2023/05/20 04:14:21;;;;;;;11.73;7.88;;;14.40;99.90;;;;;;5073994;28;20033;-49
2023/05/20 04:16:49;;;;;;;11.63;8.48;;;14.20;99.90;;;;;;5074516;28;20032;-50
2023/05/20 04:19:14;;;;;;;11.98;7.95;;;14.30;99.90;;;;;;5067049;28;20040;-48
2023/05/20 04:21:42;;;;;;;13.18;8.93;;;14.10;99.90;;;;;;5073951;28;20521;-49
2023/05/20 04:24:07;;;;;;;10.30;7.40;;;14.30;99.90;;;;;;5073128;28;20070;-50
2023/05/20 04:26:34;;;;;;;14.10;8.38;;;14.20;99.90;;;;;;5071819;28;20036;-48
2023/05/20 04:29:02;;;;;;;10.55;8.18;;;14.30;99.90;;;;;;5073177;28;20056;-49
2023/05/20 04:31:29;;;;;;;10.73;7.95;;;14.10;99.90;;;;;;5067112;28;20056;-49
2023/05/20 04:33:56;;;;;;;11.20;8.73;;;14.10;99.90;;;;;;5067686;28;20484;-48
2023/05/20 04:36:27;;;;;;;17.30;9.65;;;14.10;99.90;;;;;;5073416;28;20472;-48
2023/05/20 04:38:56;;;;;;;12.77;9.07;;;14.40;99.90;;;;;;5073194;28;20035;-48
2023/05/20 04:41:22;;;;;;;15.05;8.98;;;14.60;99.90;;;;;;5065000;28;20826;-49
2023/05/20 04:43:49;;;;;;;17.38;9.65;;;14.70;99.90;;;;;;5055320;28;20036;-49
2023/05/20 04:46:15;;;;;;;14.85;8.50;;;14.90;99.90;;;;;;5088128;28;20500;-49
2023/05/20 04:48:42;;;;;;;14.90;10.32;;;14.70;99.90;;;;;;5073282;28;20039;-46
2023/05/20 04:51:09;;;;;;;13.88;8.73;;;14.80;99.90;;;;;;5073631;28;20503;-47
2023/05/20 04:53:35;;;;;;;14.52;8.57;;;14.90;99.90;;;;;;5072852;28;20032;-46
2023/05/20 04:56:02;;;;;;;12.63;8.25;;;14.90;99.90;;;;;;5072555;28;20060;-46
2023/05/20 04:58:29;;;;;;;12.07;8.38;;;14.90;99.90;;;;;;5068135;28;20040;-46
2023/05/20 05:00:55;;;;;;;17.88;10.25;;;14.70;99.90;;;;;;5073389;28;20087;-46
2023/05/20 05:03:21;;;;;;;18.98;8.82;;;;;;;;;;5072598;28;20040;-46
2023/05/20 05:05:47;;;;;;;12.68;8.65;;;;;;;;;;5073344;28;20534;-47
2023/05/20 05:08:13;;;;;;;15.88;9.40;;;;;;;;;;5073120;28;20408;-47
2023/05/20 05:10:39;;;;;;;16.30;9.23;;;;;;;;;;5062569;28;20549;-47
2023/05/20 05:13:05;;;;;;;14.25;8.88;;;15.70;99.90;;;;;;5072686;28;20036;-46
2023/05/20 05:15:31;;;;;;;18.65;9.43;;;15.90;99.90;;;;;;5068927;28;20059;-46
2023/05/20 05:17:57;;;;;;;18.50;10.23;;;15.90;99.90;;;;;;5072277;28;20032;-47
2023/05/20 05:20:23;;;;;;;13.93;8.52;;;16.00;99.90;;;;;;5071684;28;20080;-47
2023/05/20 05:22:49;;;;;;;17.35;9.70;;;15.90;99.90;;;;;;5072373;28;20063;-47
2023/05/20 05:25:15;;;;;;;16.13;9.10;;;16.10;99.90;;;;;;5072278;28;20051;-47
2023/05/20 05:27:43;;;;;;;18.20;10.05;;;16.00;99.90;;;;;;5072554;28;20020;-47
2023/05/20 05:30:09;;;;;;;14.70;8.55;;;16.00;99.90;;;;;;5087240;28;20048;-46
2023/05/20 05:32:36;;;;;;;18.27;9.73;;;15.90;99.90;;;;;;5070264;28;20174;-46
2023/05/20 05:35:02;;;;;;;21.92;10.98;;;16.00;99.90;;;;;;5072104;28;20392;-45
2023/05/20 05:37:27;;;;;;;18.77;9.68;;;16.20;99.90;;;;;;5072398;28;20058;-47
2023/05/20 05:39:53;;;;;;;17.75;11.30;;;16.30;99.90;;;;;;5070700;28;20043;-46
2023/05/20 05:42:19;;;;;;;19.05;10.32;;;16.20;99.90;;;;;;5067995;28;20120;-45
2023/05/20 05:44:45;;;;;;;17.17;9.82;;;16.00;99.90;;;;;;5070573;28;20112;-47
2023/05/20 05:47:11;;;;;;;15.65;9.40;;;15.80;99.90;;;;;;5086749;28;20036;-46
2023/05/20 05:49:37;;;;;;;19.13;10.93;;;15.80;99.90;;;;;;5072249;28;20025;-45
2023/05/20 05:52:02;;;;;;;17.90;9.98;;;16.00;99.90;;;;;;5035343;28;20048;-47
2023/05/20 05:54:28;;;;;;;17.40;9.65;;;16.20;99.90;;;;;;5071853;28;20029;-46
2023/05/20 05:56:55;;;;;;;19.95;10.35;;;16.30;99.90;;;;;;5072199;28;20116;-45
2023/05/20 05:59:21;;;;;;;17.60;10.48;;;16.30;99.90;;;;;;5063142;28;20523;-47
2023/05/20 06:01:47;;;;;;;14.88;9.68;;;16.40;99.90;;;;;;5072022;28;20412;-46
2023/05/20 06:04:13;;;;;;;20.77;11.00;;;16.60;99.90;;;;;;5068679;28;20078;-46
2023/05/20 06:06:39;;;;;;;22.17;11.55;;;16.90;99.90;;;;;;5065867;28;20033;-47
2023/05/20 06:09:05;;;;;;;20.60;11.18;;;16.80;99.90;;;;;;5071410;28;20101;-45
2023/05/20 06:11:31;;;;;;;16.23;11.13;;;17.00;99.90;;;;;;5087551;28;20423;-47
2023/05/20 06:13:57;;;;;;;21.35;11.25;;;16.80;99.90;;;;;;5067908;28;20040;-47
2023/05/20 06:16:23;;;;;;;20.45;11.05;;;16.70;99.90;;;;;;5071939;28;20036;-46
2023/05/20 06:18:49;;;;;;;17.25;11.27;;;16.70;99.90;;;;;;5068518;28;20070;-46
2023/05/20 06:21:15;;;;;;;18.48;11.43;;;16.90;99.90;;;;;;5072842;28;20454;-46
2023/05/20 06:23:41;;;;;;;20.17;10.93;;;17.10;99.90;;;;;;5087080;28;20105;-46
2023/05/20 06:26:07;;;;;;;20.73;10.85;;;17.10;99.90;;;;;;5072152;28;20543;-46
2023/05/20 06:28:33;;;;;;;16.05;10.30;;;17.20;99.90;;;;;;5036868;28;20082;-46
2023/05/20 06:30:58;;;;;;;20.70;11.93;;;17.00;99.90;;;;;;5071296;28;20029;-46
2023/05/20 06:33:25;;;;;;;22.20;12.52;;;17.30;99.90;;;;;;5071198;28;20073;-46
2023/05/20 06:35:51;;;;;;;18.55;10.98;;;17.10;99.90;;;;;;5071709;28;20028;-46
2023/05/20 06:38:18;;;;;;;16.70;10.50;;;17.20;99.90;;;;;;5086654;28;20141;-46
2023/05/20 06:40:43;;;;;;;20.17;11.05;;;17.50;99.90;;;;;;5070454;28;20059;-46
2023/05/20 06:43:09;;;;;;;20.13;11.15;;;17.60;99.90;;;;;;5066121;28;20172;-46
2023/05/20 06:45:35;;;;;;;20.08;12.40;;;17.60;99.90;;;;;;5066645;28;20036;-46
2023/05/20 06:48:01;;;;;;;20.48;12.05;;;18.00;99.90;;;;;;5086508;28;20033;-46
2023/05/20 06:50:29;;;;;;;23.88;12.90;;;17.90;99.90;;;;;;5037620;28;20479;-46
2023/05/20 06:52:55;;;;;;;16.77;11.38;;;18.00;99.90;;;;;;5052953;28;20051;-46
2023/05/20 06:55:21;;;;;;;19.88;11.18;;;18.00;99.90;;;;;;5068078;28;20028;-46
2023/05/20 06:57:46;;;;;;;19.33;11.40;;;18.20;99.90;;;;;;5069781;28;20032;-45
2023/05/20 07:00:13;;;;;;;19.77;11.73;;;18.20;99.90;;;;;;5066923;28;20040;-46
2023/05/20 07:02:39;;;;;;;17.55;10.25;;;18.40;99.90;;;;;;5071476;28;20020;-47
2023/05/20 07:05:05;;;;;;;22.45;12.35;;;;;;;;;;5070971;28;20025;-46
2023/05/20 07:07:31;;;;;;;19.33;10.75;;;;;;;;;;5066833;28;20037;-46
2023/05/20 07:09:57;;;;;;;20.90;12.35;;;19.20;99.90;;;;;;5071245;28;20032;-46
2023/05/20 07:12:23;;;;;;;20.25;11.70;;;19.10;99.90;;;;;;5047240;28;20052;-46
2023/05/20 07:14:49;;;;;;;17.38;11.57;;;19.40;99.90;;;;;;5070167;28;20387;-46
2023/05/20 07:17:15;;;;;;;19.30;11.10;;;19.20;99.90;;;;;;5069168;28;20028;-46
2023/05/20 07:19:41;;;;;;;19.92;11.10;;;19.20;99.90;;;;;;5071142;28;20020;-45
2023/05/20 07:22:07;;;;;;;17.25;10.55;;;19.30;99.90;;;;;;5071096;28;20029;-48
2023/05/20 07:24:33;;;;;;;20.85;12.02;;;19.40;99.90;;;;;;5071688;28;20021;-45
2023/05/20 07:26:59;;;;;;;20.92;11.70;;;19.30;99.90;;;;;;5067742;28;20047;-46
2023/05/20 07:29:25;;;;;;;20.13;11.93;;;;;;;;;;5067379;28;20127;-46
2023/05/20 07:31:51;;;;;;;19.60;12.15;;;19.70;99.90;;;;;;5089545;28;20040;-46
2023/05/20 07:34:17;;;;;;;19.00;11.43;;;20.00;99.90;;;;;;5074525;28;20427;-46
2023/05/20 07:36:43;;;;;;;18.38;11.68;;;19.90;99.90;;;;;;5071518;28;20501;-46
2023/05/20 07:39:09;;;;;;;16.98;10.35;;;20.00;99.90;;;;;;5070188;28;20082;-45
2023/05/20 07:41:36;;;;;;;17.48;10.27;;;;;;;;;;5074386;28;20024;-45
2023/05/20 07:44:02;;;;;;;15.60;9.82;;;;;;;;;;5071550;28;20468;-46
2023/05/20 07:46:28;;;;;;;17.15;10.65;;;20.60;99.90;;;;;;5075030;28;20028;-46
2023/05/20 07:48:54;;;;;;;18.42;11.25;;;20.30;99.90;;;;;;5071493;28;20059;-45
2023/05/20 07:51:20;;;;;;;15.65;9.98;;;;;;;;;;5089804;28;20070;-45
2023/05/20 07:53:46;;;;;;;15.80;9.73;;;21.00;99.90;;;;;;5075247;28;20023;-45
2023/05/20 07:56:11;;;;;;;12.90;9.32;;;21.10;99.90;;;;;;5073449;28;20032;-45
2023/05/20 07:58:40;;;;;;;13.43;9.10;;;;;;;;;;5088648;28;20076;-45
2023/05/20 08:01:08;;;;;;;12.73;8.93;;;;;;;;;;5071521;28;20045;-45
2023/05/20 08:03:35;;;;;;;10.70;7.95;;;;;;;;;;5074417;28;20041;-45
2023/05/20 08:06:02;;;;;;;12.68;8.10;;;;;;;;;;5071913;28;20468;-45
2023/05/20 08:08:29;;;;;;;10.60;7.28;;;;;;;;;;5073714;28;20035;-50
2023/05/20 08:10:55;;;;;;;13.30;7.88;;;;;;;;;;5073909;28;20111;-45
2023/05/20 08:13:22;;;;;;;9.95;6.95;;;;;;;;;;5053215;28;20036;-46
2023/05/20 08:15:48;;;;;;;10.35;6.97;;;21.80;99.90;;;;;;5071753;28;20522;-45
2023/05/20 08:18:15;;;;;;;8.13;6.05;;;;;;;;;;5072455;28;20060;-45
2023/05/20 08:20:41;;;;;;;9.77;6.85;;;;;;;;;;5066856;28;20036;-45
2023/05/20 08:23:07;;;;;;;10.65;7.00;;;22.30;99.90;;;;;;5068069;28;20119;-45
2023/05/20 08:25:33;;;;;;;9.43;6.45;;;;;;;;;;5064594;28;20047;-46
2023/05/20 08:28:04;;;;;;;10.80;6.53;;;;;;;;;;5075369;28;20052;-45
2023/05/20 08:30:30;;;;;;;9.63;6.90;;;;;;;;;;5068455;28;20043;-45
2023/05/20 08:32:56;;;;;;;9.50;5.97;;;22.50;99.90;;;;;;5071395;28;20032;-46
2023/05/20 08:35:23;;;;;;;9.68;6.60;;;22.50;99.90;;;;;;5070783;28;20024;-46
2023/05/20 08:37:48;;;;;;;9.40;6.13;;;22.50;99.90;;;;;;5069681;28;20029;-46
2023/05/20 08:40:14;;;;;;;6.47;4.22;;;22.50;99.90;;;;;;5072532;28;20034;-45
2023/05/20 08:42:42;;;;;;;7.05;4.93;;;22.60;99.90;;;;;;5068543;28;20037;-46
2023/05/20 08:45:12;;;;;;;7.97;5.05;;;22.80;99.90;;;;;;5067524;28;20032;-45
2023/05/20 08:47:41;;;;;;;6.90;5.47;;;22.70;99.90;;;;;;5072374;28;20043;-46
2023/05/20 08:50:09;;;;;;;9.52;5.47;;;22.60;99.90;;;;;;5070455;28;20024;-45
2023/05/20 08:52:36;;;;;;;5.85;4.53;;;;;;;;;;5068011;28;20068;-44
2023/05/20 08:55:06;;;;;;;7.43;4.13;;;23.00;99.90;;;;;;5072735;28;20058;-45
2023/05/20 08:57:32;;;;;;;6.22;4.32;;;23.00;99.90;;;;;;5051492;28;20119;-45
2023/05/20 08:59:58;;;;;;;5.47;4.00;;;23.50;99.90;;;;;;5070923;28;20056;-45
2023/05/20 09:02:24;;;;;;;5.88;4.25;;;23.20;99.90;;;;;;5072937;28;20032;-45
2023/05/20 09:04:52;;;;;;;6.38;3.65;;;;;;;;;;5071526;28;20021;-45
2023/05/20 09:07:28;;;;;;;5.90;4.40;;;;;;;;;;5070254;28;20477;-44
2023/05/20 09:09:54;;;;;;;3.35;2.22;;;;;;;;;;5071859;28;20058;-45
2023/05/20 09:12:20;;;;;;;8.15;4.05;;;;;;;;;;5068869;28;20472;-44
2023/05/20 09:14:47;;;;;;;9.68;4.53;;;;;;;;;;5072162;28;20418;-46
2023/05/20 09:17:13;;;;;;;6.32;4.38;;;;;;;;;;5068921;28;20020;-44
2023/05/20 09:19:39;;;;;;;5.55;3.80;;;23.90;99.90;;;;;;5087446;28;20040;-45
2023/05/20 09:22:05;;;;;;;5.30;4.03;;;23.70;99.90;;;;;;5072697;28;20047;-45
2023/05/20 09:24:31;;;;;;;6.45;4.07;;;;;;;;;;5087795;28;20119;-47
2023/05/20 09:26:57;;;;;;;6.35;4.47;;;;;;;;;;5071144;28;20051;-45
2023/05/20 09:29:23;;;;;;;3.85;2.70;;;;;;;;;;5068469;28;20428;-46
2023/05/20 09:31:50;;;;;;;6.43;4.55;;;;;;;;;;5063242;28;20044;-45
2023/05/20 09:34:17;;;;;;;6.75;4.43;;;;;;;;;;5072907;28;20059;-45
2023/05/20 09:36:44;;;;;;;6.00;4.25;;;;;;;;;;5072451;28;20115;-45
2023/05/20 09:39:16;;;;;;;7.43;4.40;;;;;;;;;;5072209;28;20027;-45
2023/05/20 09:42:09;;;;;;;4.95;3.53;;;;;;;;;;5087345;28;20035;-45
2023/05/20 09:44:35;;;;;;;5.75;4.03;;;;;;;;;;5066221;28;20037;-45
2023/05/20 09:47:02;;;;;;;7.18;4.00;;;;;;;;;;5070335;28;20499;-45
2023/05/20 09:49:28;;;;;;;5.22;2.88;;;;;;;;;;5072348;28;20052;-45
2023/05/20 09:51:55;;;;;;;6.68;4.30;;;;;;;;;;5065566;28;20040;-45
2023/05/20 09:54:23;;;;;;;7.30;4.63;;;;;;;;;;5085902;28;20086;-45
2023/05/20 09:56:50;;;;;;;7.35;4.28;;;;;;;;;;5068528;28;20078;-46
2023/05/20 09:59:16;;;;;;;6.13;4.28;;;25.50;99.90;;;;;;5071651;28;20049;-46
2023/05/20 10:01:44;;;;;;;6.60;4.53;;;25.80;99.90;;;;;;5070315;28;20426;-46
2023/05/20 10:04:12;;;;;;;8.50;4.60;;;25.80;99.90;;;;;;5065310;28;20033;-46
2023/05/20 10:06:44;;;;;;;6.15;4.13;;;;;;;;;;5087020;28;20093;-46
2023/05/20 10:09:11;;;;;;;5.10;3.65;;;;;;;;;;5086518;28;20564;-46
2023/05/20 10:11:46;;;;;;;6.38;4.60;;;;;;;;;;5070555;28;20354;-47
2023/05/20 10:14:31;;;;;;;5.75;4.20;;;;;;;;;;5071101;28;20037;-46
2023/05/20 10:17:08;;;;;;;3.60;3.08;;;26.70;99.90;;;;;;5070552;28;20028;-46
2023/05/20 10:19:35;;;;;;;8.20;3.78;;;;;;;;;;5072061;28;20055;-46
2023/05/20 10:22:01;;;;;;;4.45;3.35;;;;;;;;;;5087211;28;20098;-46
2023/05/20 10:24:31;;;;;;;5.78;4.60;;;;;;;;;;5066566;28;20045;-46
2023/05/20 10:26:58;;;;;;;4.85;3.33;;;;;;;;;;5051214;28;20438;-45
2023/05/20 10:29:25;;;;;;;6.28;3.65;;;;;;;;;;5069071;28;20384;-47
2023/05/20 10:31:51;;;;;;;6.38;4.10;;;;;;;;;;5069127;28;20373;-45
2023/05/20 10:34:18;;;;;;;4.10;2.63;;;;;;;;;;5052318;28;20082;-46
2023/05/20 10:36:47;;;;;;;4.97;3.70;;;;;;;;;;5035873;28;20032;-45
2023/05/20 10:39:16;;;;;;;4.57;3.20;;;;;;;;;;5065484;28;20401;-46
2023/05/20 10:41:42;;;;;;;5.00;3.60;;;27.20;99.90;;;;;;5059191;28;20488;-48
2023/05/20 10:44:08;;;;;;;3.88;2.80;;;27.30;99.90;;;;;;5069510;28;20033;-45
2023/05/20 10:46:34;;;;;;;4.90;2.60;;;27.20;99.90;;;;;;5036396;28;20043;-45
2023/05/20 10:49:04;;;;;;;6.43;3.45;;;27.10;99.90;;;;;;5067747;28;20103;-47
2023/05/20 10:51:32;;;;;;;4.47;2.63;;;27.30;99.60;;;;;;5064917;28;20044;-47
2023/05/20 10:53:58;;;;;;;4.75;2.78;;;27.30;99.20;;;;;;5065532;28;20035;-47
2023/05/20 10:56:25;;;;;;;4.63;2.88;;;27.40;98.80;;;;;;5071132;28;20036;-47
2023/05/20 10:58:52;;;;;;;4.47;2.50;;;27.40;99.80;;;;;;5070848;28;20068;-49
2023/05/20 11:01:26;;;;;;;6.13;2.88;;;27.60;96.50;;;;;;5072250;28;20074;-48
2023/05/20 11:03:54;;;;;;;4.75;3.30;;;27.40;96.00;;;;;;5089934;28;20033;-49
2023/05/20 11:06:27;;;;;;;3.63;2.80;;;27.30;96.10;;;;;;5069570;28;20041;-46
2023/05/20 11:08:52;;;;;;;5.03;2.80;;;27.20;96.40;;;;;;5072952;28;20078;-46
2023/05/20 11:11:20;;;;;;;3.58;2.58;;;27.20;96.20;;;;;;5075161;28;20036;-48
2023/05/20 11:13:51;;;;;;;3.10;2.55;;;27.50;96.20;;;;;;5073866;28;20051;-46
2023/05/20 11:16:16;;;;;;;4.88;3.05;;;27.30;95.70;;;;;;5072403;28;20036;-45
2023/05/20 11:18:42;;;;;;;4.20;2.33;;;27.30;96.30;;;;;;5074224;28;20475;-47
2023/05/20 11:21:08;;;;;;;3.72;2.78;;;26.80;95.70;;;;;;5075271;28;20545;-47
2023/05/20 11:23:33;;;;;;;4.57;3.10;;;27.00;97.60;;;;;;5086944;28;20040;-47
2023/05/20 11:26:00;;;;;;;4.00;2.78;;;27.40;97.60;;;;;;5074595;28;20056;-47
2023/05/20 11:28:26;;;;;;;5.60;2.85;;;27.70;97.20;;;;;;5071817;28;20074;-46
2023/05/20 11:30:52;;;;;;;6.18;3.20;;;27.50;96.20;;;;;;5074247;28;20064;-49
2023/05/20 11:33:18;;;;;;;4.47;3.30;;;;;;;;;;5073644;28;20464;-47
2023/05/20 11:35:51;;;;;;;4.28;2.95;;;27.70;99.90;;;;;;5068854;28;20445;-47
2023/05/20 11:38:18;;;;;;;4.03;2.83;;;27.70;95.80;;;;;;5071949;28;20035;-47
2023/05/20 11:40:45;;;;;;;4.85;3.70;;;27.90;96.20;;;;;;5075372;28;20025;-47
2023/05/20 11:43:12;;;;;;;7.05;2.80;;;28.10;96.10;;;;;;5073012;28;20036;-47
2023/05/20 11:45:40;;;;;;;4.25;2.80;;;27.80;95.90;;;;;;5089133;28;20044;-46
2023/05/20 11:48:06;;;;;;;3.70;2.55;;;27.90;96.10;;;;;;5069290;28;20097;-47
2023/05/20 11:50:35;;;;;;;5.60;3.30;;;27.90;94.70;;;;;;5036574;28;20119;-47
2023/05/20 11:53:03;;;;;;;3.10;2.25;;;27.70;94.80;;;;;;5071094;28;20050;-47
2023/05/20 11:55:30;;;;;;;6.05;3.03;;;28.00;94.90;;;;;;5068537;28;20028;-48
2023/05/20 11:57:57;;;;;;;4.78;2.97;;;;;;;;;;5070544;28;20033;-47
2023/05/20 12:00:23;;;;;;;5.53;3.15;;;28.10;94.20;;;;;;5067089;28;20052;-48
2023/05/20 12:02:49;;;;;;;6.80;2.85;;;28.10;95.60;;;;;;5068101;28;20582;-47
2023/05/20 12:05:15;;;;;;;3.42;2.92;;;27.70;94.70;;;;;;5070031;28;20025;-47
2023/05/20 12:07:41;;;;;;;5.30;2.90;;;27.60;94.60;;;;;;5030936;28;20094;-48
2023/05/20 12:10:07;;;;;;;2.72;2.35;;;27.90;94.30;;;;;;5069729;28;20048;-47
2023/05/20 12:12:35;;;;;;;4.22;3.22;;;27.70;94.00;;;;;;5002827;28;20082;-48
2023/05/20 12:15:02;;;;;;;5.57;2.65;;;28.30;94.90;;;;;;5070196;28;20020;-46
2023/05/20 12:17:28;;;;;;;3.13;2.42;;;28.00;93.90;;;;;;5069974;28;20093;-47
2023/05/20 12:19:54;;;;;;;3.95;2.65;;;27.80;94.90;;;;;;5072733;28;20032;-48
2023/05/20 12:22:19;;;;;;;4.20;2.92;;;27.90;94.60;;;;;;5066219;28;20063;-47
2023/05/20 12:24:45;;;;;;;4.25;2.78;;;27.80;94.50;;;;;;5072494;28;20035;-47
2023/05/20 12:27:11;;;;;;;6.68;3.00;;;28.20;94.90;;;;;;5073558;28;20027;-46
2023/05/20 12:29:37;;;;;;;3.78;2.67;;;;;;;;;;5072156;28;20056;-47
2023/05/20 12:32:03;;;;;;;3.83;2.72;;;28.40;94.40;;;;;;5072357;28;20020;-48
2023/05/20 12:34:29;;;;;;;4.53;3.20;;;28.30;94.10;;;;;;5035114;28;20039;-47
2023/05/20 12:36:55;;;;;;;4.18;2.92;;;28.50;94.20;;;;;;5087044;28;20044;-47
2023/05/20 12:39:20;;;;;;;4.13;2.65;;;28.80;95.10;;;;;;5067330;28;20109;-46
2023/05/20 12:41:46;;;;;;;4.20;3.13;;;28.50;93.70;;;;;;5087651;28;20043;-47
2023/05/20 12:44:12;;;;;;;5.60;3.20;;;28.60;93.90;;;;;;5072137;28;20071;-47
2023/05/20 12:46:37;;;;;;;4.03;2.92;;;28.70;93.70;;;;;;5072011;28;20056;-47
2023/05/20 12:49:03;;;;;;;6.05;3.40;;;28.30;93.50;;;;;;5070779;28;20066;-47
2023/05/20 12:51:29;;;;;;;3.88;2.90;;;28.40;93.80;;;;;;5072370;28;20068;-47
2023/05/20 12:53:55;;;;;;;3.45;2.83;;;28.60;94.00;;;;;;5069847;28;20107;-47